createdAt,value
2019-05-23T00:01:22.769Z,99.90
2019-05-23T00:02:43.986Z,99.90
2019-05-23T00:03:54.449Z,99.90
2019-05-23T00:05:12.938Z,99.90
2019-05-23T00:06:20.188Z,99.90
2019-05-23T00:07:25.432Z,99.90
2019-05-23T00:08:30.768Z,99.90
2019-05-23T00:09:33.410Z,99.90
2019-05-23T00:10:42.224Z,99.90
2019-05-23T00:11:46.499Z,99.90
2019-05-23T00:12:59.209Z,99.90
2019-05-23T00:14:06.727Z,99.90
2019-05-23T00:15:20.294Z,99.90
2019-05-23T00:16:23.162Z,99.90
2019-05-23T00:17:25.572Z,99.90
2019-05-23T00:18:28.681Z,99.90
2019-05-23T00:19:32.057Z,99.90
2019-05-23T00:20:35.062Z,99.90
2019-05-23T00:21:38.527Z,99.90
2019-05-23T00:22:43.632Z,99.90
2019-05-23T00:23:46.189Z,99.90
2019-05-23T00:24:49.761Z,99.90
2019-05-23T00:25:53.317Z,99.90
2019-05-23T00:26:56.919Z,99.90
2019-05-23T00:27:59.697Z,99.90
2019-05-23T00:29:09.924Z,99.90
2019-05-23T00:30:08.752Z,99.90
2019-05-23T00:31:25.466Z,99.90
2019-05-23T00:32:45.343Z,99.90
2019-05-23T00:33:48.265Z,99.90
2019-05-23T00:34:52.956Z,99.90
2019-05-23T00:35:56.153Z,99.90
2019-05-23T00:36:59.316Z,99.90
2019-05-23T00:38:03.680Z,99.90
2019-05-23T00:39:08.609Z,99.90
2019-05-23T00:40:12.232Z,99.90
2019-05-23T00:41:16.937Z,99.90
2019-05-23T00:42:21.268Z,99.90
2019-05-23T00:43:24.965Z,99.90
2019-05-23T00:44:30.032Z,99.90
2019-05-23T00:45:34.568Z,99.90
2019-05-23T00:46:37.486Z,99.90
2019-05-23T00:47:41.804Z,99.90
2019-05-23T00:48:45.295Z,99.90
2019-05-23T00:49:48.996Z,99.90
2019-05-23T00:50:52.116Z,99.90
2019-05-23T00:51:55.028Z,99.90
2019-05-23T00:52:58.766Z,99.90
2019-05-23T00:54:02.996Z,99.90
2019-05-23T00:55:07.684Z,99.90
2019-05-23T00:56:10.352Z,99.90
2019-05-23T00:57:13.657Z,99.90
2019-05-23T00:58:19.312Z,99.90
2019-05-23T00:59:27.199Z,99.90
2019-05-23T01:00:26.825Z,99.90
2019-05-23T01:01:31.273Z,99.90
2019-05-23T01:02:33.904Z,99.90
2019-05-23T01:03:37.623Z,99.90
2019-05-23T01:04:42.153Z,99.90
2019-05-23T01:05:44.792Z,99.90
2019-05-23T01:06:47.891Z,99.90
2019-05-23T01:07:52.020Z,99.90
2019-05-23T01:08:57.759Z,99.90
2019-05-23T01:10:01.086Z,99.90
2019-05-23T01:11:04.696Z,99.90
2019-05-23T01:12:07.966Z,99.90
2019-05-23T01:13:10.657Z,99.90
2019-05-23T01:14:13.407Z,99.90
2019-05-23T01:15:18.111Z,99.90
2019-05-23T01:16:21.456Z,99.90
2019-05-23T01:17:26.443Z,99.90
2019-05-23T01:18:28.927Z,99.90
2019-05-23T01:19:32.186Z,99.90
2019-05-23T01:20:49.572Z,99.90
2019-05-23T01:22:03.452Z,99.90
2019-05-23T01:23:08.765Z,99.90
2019-05-23T01:24:21.755Z,99.90
2019-05-23T01:25:25.369Z,99.90
2019-05-23T01:26:28.659Z,99.90
2019-05-23T01:27:31.578Z,99.90
2019-05-23T01:28:34.240Z,99.90
2019-05-23T01:29:39.034Z,99.90
2019-05-23T01:30:44.487Z,99.90
2019-05-23T01:31:49.141Z,99.90
2019-05-23T01:32:55.098Z,99.90
2019-05-23T01:33:57.685Z,99.90
2019-05-23T01:35:00.995Z,99.90
2019-05-23T01:36:08.525Z,99.90
2019-05-23T01:37:11.335Z,99.90
2019-05-23T01:38:15.576Z,99.90
2019-05-23T01:39:18.449Z,99.90
2019-05-23T01:40:21.102Z,99.90
2019-05-23T01:41:24.427Z,99.90
2019-05-23T01:42:27.650Z,99.90
2019-05-23T01:43:31.545Z,99.90
2019-05-23T01:44:35.276Z,99.90
2019-05-23T01:45:39.989Z,99.90
2019-05-23T01:46:42.683Z,99.90
2019-05-23T01:47:47.192Z,99.90
2019-05-23T01:48:49.674Z,99.90
2019-05-23T01:49:52.492Z,99.90
2019-05-23T01:50:54.927Z,99.90
2019-05-23T01:51:57.394Z,99.90
2019-05-23T01:52:59.791Z,99.90
2019-05-23T01:54:02.864Z,99.90
2019-05-23T01:55:07.527Z,99.90
2019-05-23T01:56:10.954Z,99.90
2019-05-23T01:57:13.850Z,99.90
2019-05-23T01:58:16.395Z,99.90
2019-05-23T01:59:19.428Z,99.90
2019-05-23T02:00:26.232Z,99.90
2019-05-23T02:01:29.230Z,99.90
2019-05-23T02:02:32.085Z,99.90
2019-05-23T02:03:36.089Z,99.90
2019-05-23T02:04:39.285Z,99.90
2019-05-23T02:05:42.157Z,99.90
2019-05-23T02:06:45.089Z,99.90
2019-05-23T02:07:48.741Z,99.90
2019-05-23T02:08:52.648Z,99.90
2019-05-23T02:09:55.498Z,99.90
2019-05-23T02:10:58.231Z,99.90
2019-05-23T02:12:02.663Z,99.90
2019-05-23T02:13:05.475Z,99.90
2019-05-23T02:14:08.069Z,99.90
2019-05-23T02:15:12.274Z,99.90
2019-05-23T02:16:14.654Z,99.90
2019-05-23T02:17:17.656Z,99.90
2019-05-23T02:18:21.212Z,99.90
2019-05-23T02:19:25.420Z,99.90
2019-05-23T02:20:28.514Z,99.90
2019-05-23T02:21:30.936Z,99.90
2019-05-23T02:22:33.857Z,99.90
2019-05-23T02:23:36.276Z,99.90
2019-05-23T02:24:39.032Z,99.90
2019-05-23T02:25:41.874Z,99.90
2019-05-23T02:26:46.225Z,99.90
2019-05-23T02:27:50.355Z,99.90
2019-05-23T02:28:53.601Z,99.90
2019-05-23T02:29:56.033Z,99.90
2019-05-23T02:31:00.542Z,99.90
2019-05-23T02:32:05.414Z,99.90
2019-05-23T02:33:08.584Z,99.90
2019-05-23T02:34:11.518Z,99.90
2019-05-23T02:35:14.583Z,99.90
2019-05-23T02:36:17.172Z,99.90
2019-05-23T02:37:34.214Z,99.90
2019-05-23T02:38:50.529Z,99.90
2019-05-23T02:40:03.114Z,99.90
2019-05-23T02:41:28.029Z,99.90
2019-05-23T02:42:47.519Z,99.90
2019-05-23T02:43:53.571Z,99.90
2019-05-23T02:44:57.224Z,99.90
2019-05-23T02:46:02.892Z,99.90
2019-05-23T02:47:24.355Z,99.90
2019-05-23T02:48:33.139Z,99.90
2019-05-23T02:49:36.518Z,99.90
2019-05-23T02:50:50.075Z,99.90
2019-05-23T02:51:55.058Z,99.90
2019-05-23T02:52:59.286Z,99.90
2019-05-23T02:54:04.189Z,99.90
2019-05-23T02:55:13.011Z,99.90
2019-05-23T02:56:17.902Z,99.90
2019-05-23T02:57:23.538Z,99.90
2019-05-23T02:58:51.357Z,99.90
2019-05-23T02:59:58.752Z,99.90
2019-05-23T03:01:45.553Z,99.90
2019-05-23T03:02:54.061Z,99.90
2019-05-23T03:04:00.994Z,99.90
2019-05-23T03:05:06.315Z,99.90
2019-05-23T03:06:16.477Z,99.90
2019-05-23T03:07:21.345Z,99.90
2019-05-23T03:08:24.239Z,99.90
2019-05-23T03:09:32.460Z,99.90
2019-05-23T03:11:01.535Z,99.90
2019-05-23T03:12:06.339Z,99.90
2019-05-23T03:13:10.528Z,99.90
2019-05-23T03:14:14.874Z,99.90
2019-05-23T03:15:18.732Z,99.90
2019-05-23T03:16:24.759Z,99.90
2019-05-23T03:17:30.283Z,99.90
2019-05-23T03:18:39.204Z,99.90
2019-05-23T03:19:57.244Z,99.90
2019-05-23T03:21:01.517Z,99.90
2019-05-23T03:22:31.113Z,99.90
2019-05-23T03:23:34.930Z,99.90
2019-05-23T03:24:38.442Z,99.90
2019-05-23T03:26:20.267Z,99.90
2019-05-23T03:27:24.163Z,99.90
2019-05-23T03:28:29.927Z,99.90
2019-05-23T03:29:33.803Z,99.90
2019-05-23T03:30:38.613Z,99.90
2019-05-23T03:31:46.726Z,99.90
2019-05-23T03:32:52.851Z,99.90
2019-05-23T03:33:55.453Z,99.90
2019-05-23T03:35:04.569Z,99.90
2019-05-23T03:36:08.114Z,99.90
2019-05-23T03:37:10.828Z,99.90
2019-05-23T03:38:14.350Z,99.90
2019-05-23T03:39:17.625Z,99.90
2019-05-23T03:40:22.336Z,99.90
2019-05-23T03:41:25.437Z,99.90
2019-05-23T03:42:28.464Z,99.90
2019-05-23T03:43:31.085Z,99.90
2019-05-23T03:44:33.741Z,99.90
2019-05-23T03:45:39.818Z,99.90
2019-05-23T03:46:46.176Z,99.90
2019-05-23T03:47:49.014Z,99.90
2019-05-23T03:48:52.628Z,99.90
2019-05-23T03:49:55.387Z,99.90
2019-05-23T03:51:00.276Z,99.90
2019-05-23T03:52:04.244Z,99.90
2019-05-23T03:53:09.669Z,99.90
2019-05-23T03:54:12.815Z,99.90
2019-05-23T03:55:15.538Z,99.90
2019-05-23T03:56:19.178Z,99.90
2019-05-23T03:57:25.623Z,99.90
2019-05-23T03:58:29.098Z,99.90
2019-05-23T03:59:32.712Z,99.90
2019-05-23T04:00:38.813Z,99.90
2019-05-23T04:01:48.626Z,99.90
2019-05-23T04:02:50.091Z,99.90
2019-05-23T04:03:54.733Z,99.90
2019-05-23T04:04:58.872Z,99.90
2019-05-23T04:06:01.925Z,99.90
2019-05-23T04:07:04.541Z,99.90
2019-05-23T04:08:07.110Z,99.90
2019-05-23T04:09:11.123Z,99.90
2019-05-23T04:10:13.904Z,99.90
2019-05-23T04:11:17.910Z,99.90
2019-05-23T04:12:20.936Z,99.90
2019-05-23T04:13:24.412Z,99.90
2019-05-23T04:14:27.765Z,99.90
2019-05-23T04:15:32.072Z,99.90
2019-05-23T04:16:34.498Z,99.90
2019-05-23T04:17:37.897Z,99.90
2019-05-23T04:18:40.325Z,99.90
2019-05-23T04:19:42.793Z,99.90
2019-05-23T04:20:46.020Z,99.90
2019-05-23T04:21:48.455Z,99.90
2019-05-23T04:22:51.017Z,99.90
2019-05-23T04:23:53.464Z,99.90
2019-05-23T04:25:01.154Z,99.90
2019-05-23T04:26:01.092Z,99.90
2019-05-23T04:27:03.542Z,99.90
2019-05-23T04:28:06.177Z,99.90
2019-05-23T04:29:09.817Z,99.90
2019-05-23T04:30:12.337Z,99.90
2019-05-23T04:31:14.855Z,99.90
2019-05-23T04:32:17.779Z,99.90
2019-05-23T04:33:20.956Z,99.90
2019-05-23T04:34:23.783Z,99.90
2019-05-23T04:35:27.417Z,99.90
2019-05-23T04:36:31.966Z,99.90
2019-05-23T04:37:34.508Z,99.90
2019-05-23T04:38:50.172Z,99.90
2019-05-23T04:39:53.209Z,99.90
2019-05-23T04:40:56.317Z,99.90
2019-05-23T04:41:59.575Z,99.90
2019-05-23T04:43:04.443Z,99.90
2019-05-23T04:44:08.740Z,99.90
2019-05-23T04:45:11.530Z,99.90
2019-05-23T04:46:14.474Z,99.90
2019-05-23T04:47:18.295Z,99.90
2019-05-23T04:48:20.695Z,99.90
2019-05-23T04:49:23.450Z,99.90
2019-05-23T04:50:25.907Z,99.90
2019-05-23T04:51:29.053Z,99.90
2019-05-23T04:52:32.074Z,99.90
2019-05-23T04:53:35.648Z,99.90
2019-05-23T04:54:40.114Z,99.90
2019-05-23T04:55:42.954Z,99.90
2019-05-23T04:56:45.415Z,99.90
2019-05-23T04:57:48.073Z,99.90
2019-05-23T04:58:51.806Z,99.90
2019-05-23T04:59:54.902Z,99.90
2019-05-23T05:00:57.619Z,99.90
2019-05-23T05:02:01.066Z,99.90
2019-05-23T05:03:05.279Z,99.90
2019-05-23T05:04:08.232Z,99.90
2019-05-23T05:05:11.655Z,99.90
2019-05-23T05:06:14.918Z,99.90
2019-05-23T05:07:17.685Z,99.90
2019-05-23T05:08:20.395Z,99.90
2019-05-23T05:09:28.795Z,99.90
2019-05-23T05:10:32.209Z,99.90
2019-05-23T05:11:34.836Z,99.90
2019-05-23T05:12:37.515Z,99.90
2019-05-23T05:13:41.492Z,99.90
2019-05-23T05:14:44.280Z,99.90
2019-05-23T05:15:47.228Z,99.90
2019-05-23T05:16:50.335Z,99.90
2019-05-23T05:17:52.796Z,99.90
2019-05-23T05:18:57.427Z,99.90
2019-05-23T05:20:00.187Z,99.90
2019-05-23T05:21:02.912Z,99.90
2019-05-23T05:22:05.463Z,99.90
2019-05-23T05:23:07.899Z,99.90
2019-05-23T05:24:10.310Z,99.90
2019-05-23T05:25:13.439Z,99.90
2019-05-23T05:26:21.749Z,99.90
2019-05-23T05:27:25.195Z,99.90
2019-05-23T05:28:29.448Z,99.90
2019-05-23T05:29:31.982Z,99.90
2019-05-23T05:30:35.366Z,99.90
2019-05-23T05:31:37.880Z,99.90
2019-05-23T05:32:45.323Z,99.90
2019-05-23T05:33:46.643Z,99.90
2019-05-23T05:34:49.173Z,99.90
2019-05-23T05:35:51.716Z,99.90
2019-05-23T05:36:54.464Z,99.90
2019-05-23T05:37:57.419Z,99.90
2019-05-23T05:38:59.963Z,99.90
2019-05-23T05:40:03.893Z,99.90
2019-05-23T05:41:07.250Z,99.90
2019-05-23T05:42:11.098Z,98.20
2019-05-23T05:43:14.443Z,97.10
2019-05-23T05:44:18.418Z,94.10
2019-05-23T05:45:21.430Z,93.30
2019-05-23T05:46:24.266Z,92.50
2019-05-23T05:47:27.373Z,93.30
2019-05-23T05:48:30.533Z,91.90
2019-05-23T05:49:34.407Z,92.20
2019-05-23T05:50:40.142Z,91.80
2019-05-23T05:51:44.235Z,92.60
2019-05-23T05:52:48.095Z,92.50
2019-05-23T05:53:53.529Z,93.30
2019-05-23T05:55:01.164Z,94.80
2019-05-23T05:56:09.594Z,94.10
2019-05-23T05:57:12.937Z,95.00
2019-05-23T05:58:15.753Z,93.20
2019-05-23T05:59:19.259Z,92.50
2019-05-23T06:00:36.641Z,89.00
2019-05-23T06:01:39.817Z,91.60
2019-05-23T06:03:00.803Z,91.30
2019-05-23T06:03:49.279Z,91.80
2019-05-23T06:04:52.309Z,90.50
2019-05-23T06:06:23.500Z,91.10
2019-05-23T06:07:36.577Z,91.60
2019-05-23T06:08:40.162Z,91.80
2019-05-23T06:09:42.988Z,93.40
2019-05-23T06:10:45.451Z,93.60
2019-05-23T06:11:47.865Z,95.90
2019-05-23T06:12:50.583Z,97.00
2019-05-23T06:13:53.619Z,97.50
2019-05-23T06:14:56.212Z,97.70
2019-05-23T06:15:58.684Z,99.40
2019-05-23T06:17:03.879Z,99.90
2019-05-23T06:18:06.401Z,99.90
2019-05-23T06:19:09.071Z,99.90
2019-05-23T06:20:12.167Z,99.90
2019-05-23T06:21:18.341Z,99.90
2019-05-23T06:22:21.701Z,99.90
2019-05-23T06:23:24.229Z,99.90
2019-05-23T06:24:41.683Z,99.90
2019-05-23T06:25:31.769Z,99.90
2019-05-23T06:26:34.256Z,99.90
2019-05-23T06:27:39.859Z,99.90
2019-05-23T06:28:43.127Z,99.90
2019-05-23T06:29:45.584Z,99.90
2019-05-23T06:30:49.132Z,99.90
2019-05-23T06:31:51.927Z,99.90
2019-05-23T06:32:54.633Z,99.90
2019-05-23T06:33:57.671Z,99.90
2019-05-23T06:35:00.302Z,99.90
2019-05-23T06:36:03.355Z,99.90
2019-05-23T06:37:07.870Z,99.90
2019-05-23T06:38:10.973Z,99.90
2019-05-23T06:39:15.275Z,99.90
2019-05-23T06:40:18.339Z,99.90
2019-05-23T06:41:22.975Z,99.90
2019-05-23T06:42:25.364Z,99.90
2019-05-23T06:43:28.702Z,99.90
2019-05-23T06:44:31.936Z,99.90
2019-05-23T06:45:34.353Z,99.90
2019-05-23T06:46:49.429Z,99.90
2019-05-23T06:47:57.677Z,99.90
2019-05-23T06:49:00.222Z,99.90
2019-05-23T06:50:06.819Z,99.90
2019-05-23T06:51:09.267Z,99.90
2019-05-23T06:52:13.199Z,99.90
2019-05-23T06:53:15.843Z,99.90
2019-05-23T06:54:18.455Z,99.90
2019-05-23T06:55:20.975Z,99.90
2019-05-23T06:56:24.229Z,99.40
2019-05-23T06:57:26.855Z,99.90
2019-05-23T06:58:29.612Z,96.60
2019-05-23T06:59:32.739Z,98.30
2019-05-23T07:00:35.299Z,96.30
2019-05-23T07:01:38.164Z,97.60
2019-05-23T07:02:41.330Z,97.30
2019-05-23T07:03:44.237Z,96.20
2019-05-23T07:04:47.244Z,97.70
2019-05-23T07:05:50.092Z,96.50
2019-05-23T07:06:52.669Z,96.40
2019-05-23T07:07:55.943Z,96.80
2019-05-23T07:08:58.894Z,97.00
2019-05-23T07:10:03.732Z,96.50
2019-05-23T07:11:06.273Z,96.50
2019-05-23T07:12:09.502Z,96.40
2019-05-23T07:13:12.087Z,94.50
2019-05-23T07:14:15.003Z,95.40
2019-05-23T07:15:17.885Z,94.90
2019-05-23T07:16:20.444Z,93.30
2019-05-23T07:17:25.263Z,93.00
2019-05-23T07:18:28.004Z,92.00
2019-05-23T07:19:30.562Z,91.60
2019-05-23T07:20:33.504Z,93.90
2019-05-23T07:21:35.929Z,91.40
2019-05-23T07:22:39.283Z,93.70
2019-05-23T07:23:41.823Z,89.80
2019-05-23T07:24:57.526Z,92.20
2019-05-23T07:25:48.608Z,92.10
2019-05-23T07:26:51.270Z,92.30
2019-05-23T07:27:56.175Z,91.20
2019-05-23T07:28:58.797Z,87.50
2019-05-23T07:30:03.530Z,90.80
2019-05-23T07:31:06.486Z,90.50
2019-05-23T07:32:09.132Z,90.90
2019-05-23T07:33:12.871Z,90.20
2019-05-23T07:34:15.790Z,91.20
2019-05-23T07:35:19.232Z,91.60
2019-05-23T07:36:21.794Z,92.00
2019-05-23T07:37:24.431Z,91.60
2019-05-23T07:38:27.243Z,81.70
2019-05-23T07:39:29.710Z,80.50
2019-05-23T07:40:32.455Z,87.90
2019-05-23T07:41:34.901Z,86.70
2019-05-23T07:42:37.328Z,79.70
2019-05-23T07:43:39.941Z,77.50
2019-05-23T07:44:48.325Z,85.00
2019-05-23T07:45:52.289Z,83.60
2019-05-23T07:46:54.720Z,75.10
2019-05-23T07:47:57.645Z,76.00
2019-05-23T07:49:00.143Z,86.10
2019-05-23T07:50:02.653Z,82.80
2019-05-23T07:51:05.358Z,82.70
2019-05-23T07:52:07.843Z,85.20
2019-05-23T07:53:13.197Z,79.10
2019-05-23T07:54:29.907Z,79.90
2019-05-23T07:55:36.712Z,82.00
2019-05-23T07:56:39.657Z,77.20
2019-05-23T07:57:42.493Z,83.30
2019-05-23T07:58:45.213Z,84.00
2019-05-23T07:59:48.069Z,77.20
2019-05-23T08:00:54.828Z,79.90
2019-05-23T08:02:12.065Z,80.70
2019-05-23T08:03:15.906Z,78.60
2019-05-23T08:04:21.792Z,72.20
2019-05-23T08:05:24.126Z,74.90
2019-05-23T08:06:27.169Z,88.20
2019-05-23T08:07:32.800Z,78.50
2019-05-23T08:08:35.279Z,80.60
2019-05-23T08:09:37.701Z,82.60
2019-05-23T08:10:40.116Z,79.80
2019-05-23T08:11:42.762Z,82.30
2019-05-23T08:12:45.630Z,81.60
2019-05-23T08:13:49.240Z,78.20
2019-05-23T08:14:51.747Z,73.00
2019-05-23T08:15:54.686Z,74.30
2019-05-23T08:16:57.564Z,78.20
2019-05-23T08:18:00.011Z,74.30
2019-05-23T08:19:02.668Z,72.30
2019-05-23T08:20:05.695Z,70.70
2019-05-23T08:21:08.625Z,78.00
2019-05-23T08:22:11.515Z,73.60
2019-05-23T08:23:14.540Z,77.00
2019-05-23T08:24:17.384Z,75.00
2019-05-23T08:25:19.802Z,71.80
2019-05-23T08:26:23.045Z,74.80
2019-05-23T08:27:25.700Z,81.00
2019-05-23T08:28:28.620Z,76.40
2019-05-23T08:29:33.123Z,72.80
2019-05-23T08:30:35.954Z,75.50
2019-05-23T08:31:38.843Z,70.40
2019-05-23T08:32:42.350Z,72.90
2019-05-23T08:33:46.102Z,71.20
2019-05-23T08:34:49.467Z,75.30
2019-05-23T08:35:54.526Z,74.20
2019-05-23T08:36:57.546Z,71.00
2019-05-23T08:38:00.342Z,69.50
2019-05-23T08:39:05.641Z,68.90
2019-05-23T08:40:09.161Z,70.80
2019-05-23T08:41:14.112Z,69.50
2019-05-23T08:42:18.240Z,78.40
2019-05-23T08:43:21.078Z,69.60
2019-05-23T08:44:23.970Z,71.20
2019-05-23T08:45:26.615Z,68.90
2019-05-23T08:46:29.467Z,67.90
2019-05-23T08:47:32.097Z,75.00
2019-05-23T08:48:34.548Z,72.20
2019-05-23T08:49:37.328Z,69.70
2019-05-23T08:50:40.418Z,74.10
2019-05-23T08:51:43.275Z,75.70
2019-05-23T08:52:45.751Z,73.40
2019-05-23T08:53:48.258Z,77.20
2019-05-23T08:54:55.226Z,70.80
2019-05-23T08:55:57.942Z,71.30
2019-05-23T08:57:00.512Z,71.80
2019-05-23T08:58:04.001Z,65.10
2019-05-23T08:59:07.088Z,64.80
2019-05-23T09:00:10.037Z,68.20
2019-05-23T09:01:12.778Z,68.50
2019-05-23T09:02:16.310Z,68.60
2019-05-23T09:03:19.530Z,64.30
2019-05-23T09:04:22.740Z,65.10
2019-05-23T09:05:27.502Z,65.80
2019-05-23T09:06:30.189Z,65.60
2019-05-23T09:07:32.709Z,66.20
2019-05-23T09:08:35.966Z,68.10
2019-05-23T09:09:38.716Z,69.80
2019-05-23T09:10:41.376Z,69.40
2019-05-23T09:11:44.581Z,66.60
2019-05-23T09:12:47.894Z,60.80
2019-05-23T09:13:50.401Z,68.40
2019-05-23T09:14:53.299Z,68.90
2019-05-23T09:15:56.131Z,70.50
2019-05-23T09:17:00.356Z,69.60
2019-05-23T09:18:04.963Z,64.30
2019-05-23T09:19:08.191Z,65.40
2019-05-23T09:20:12.327Z,65.40
2019-05-23T09:21:14.743Z,62.10
2019-05-23T09:22:17.378Z,63.70
2019-05-23T09:23:20.331Z,59.80
2019-05-23T09:24:22.840Z,60.00
2019-05-23T09:25:25.269Z,60.90
2019-05-23T09:26:27.850Z,65.80
2019-05-23T09:27:30.290Z,64.50
2019-05-23T09:28:34.529Z,65.00
2019-05-23T09:29:37.197Z,66.40
2019-05-23T09:30:39.650Z,69.40
2019-05-23T09:31:42.260Z,61.50
2019-05-23T09:32:44.803Z,62.00
2019-05-23T09:33:47.316Z,65.80
2019-05-23T09:34:50.021Z,59.50
2019-05-23T09:35:52.453Z,63.50
2019-05-23T09:36:54.895Z,59.50
2019-05-23T09:37:57.738Z,59.20
2019-05-23T09:39:00.214Z,63.90
2019-05-23T09:40:05.082Z,57.30
2019-05-23T09:41:07.945Z,58.60
2019-05-23T09:42:12.141Z,58.40
2019-05-23T09:43:16.273Z,59.70
2019-05-23T09:44:19.254Z,62.10
2019-05-23T09:45:22.299Z,59.00
2019-05-23T09:46:25.191Z,59.00
2019-05-23T09:47:27.903Z,61.50
2019-05-23T09:48:30.847Z,60.80
2019-05-23T09:49:33.327Z,58.60
2019-05-23T09:50:35.893Z,57.40
2019-05-23T09:51:38.634Z,58.20
2019-05-23T09:52:41.699Z,58.50
2019-05-23T09:53:47.342Z,59.10
2019-05-23T09:54:48.610Z,59.70
2019-05-23T09:55:51.440Z,57.60
2019-05-23T09:56:54.186Z,59.80
2019-05-23T09:57:56.602Z,57.50
2019-05-23T09:58:59.336Z,56.80
2019-05-23T10:00:01.938Z,59.30
2019-05-23T10:01:05.281Z,60.10
2019-05-23T10:02:08.306Z,60.60
2019-05-23T10:03:11.135Z,61.50
2019-05-23T10:04:13.617Z,64.10
2019-05-23T10:05:16.458Z,66.50
2019-05-23T10:06:19.345Z,65.70
2019-05-23T10:07:22.073Z,66.00
2019-05-23T10:08:24.703Z,71.60
2019-05-23T10:09:27.467Z,60.60
2019-05-23T10:10:31.127Z,64.50
2019-05-23T10:11:33.917Z,63.20
2019-05-23T10:12:36.662Z,66.20
2019-05-23T10:13:39.729Z,64.70
2019-05-23T10:14:42.451Z,66.00
2019-05-23T10:15:50.630Z,66.70
2019-05-23T10:16:53.242Z,67.00
2019-05-23T10:17:55.651Z,62.30
2019-05-23T10:18:58.370Z,67.50
2019-05-23T10:20:00.866Z,66.80
2019-05-23T10:21:04.721Z,65.20
2019-05-23T10:22:07.198Z,66.20
2019-05-23T10:23:09.675Z,64.60
2019-05-23T10:24:12.605Z,62.00
2019-05-23T10:25:17.479Z,67.50
2019-05-23T10:26:20.425Z,60.90
2019-05-23T10:27:23.486Z,72.50
2019-05-23T10:28:25.986Z,69.50
2019-05-23T10:29:28.403Z,65.70
2019-05-23T10:30:32.629Z,70.90
2019-05-23T10:31:35.077Z,66.30
2019-05-23T10:32:37.549Z,75.60
2019-05-23T10:33:40.127Z,65.10
2019-05-23T10:34:42.904Z,67.50
2019-05-23T10:35:59.766Z,79.00
2019-05-23T10:36:50.085Z,77.30
2019-05-23T10:37:52.705Z,72.70
2019-05-23T10:38:55.436Z,72.70
2019-05-23T10:39:57.861Z,72.20
2019-05-23T10:41:00.405Z,75.10
2019-05-23T10:42:02.911Z,74.00
2019-05-23T10:43:05.515Z,67.40
2019-05-23T10:44:08.531Z,69.70
2019-05-23T10:45:12.255Z,67.50
2019-05-23T10:46:14.827Z,71.00
2019-05-23T10:47:18.456Z,62.40
2019-05-23T10:48:21.810Z,75.00
2019-05-23T10:49:24.455Z,76.80
2019-05-23T10:50:41.971Z,74.80
2019-05-23T10:51:32.338Z,72.80
2019-05-23T10:52:35.221Z,79.20
2019-05-23T10:53:37.659Z,73.00
2019-05-23T10:54:40.205Z,74.50
2019-05-23T10:55:43.001Z,75.70
2019-05-23T10:56:45.376Z,75.70
2019-05-23T10:57:47.803Z,77.10
2019-05-23T10:58:50.211Z,70.40
2019-05-23T10:59:52.661Z,73.70
2019-05-23T11:00:56.595Z,77.10
2019-05-23T11:01:59.063Z,75.00
2019-05-23T11:03:01.470Z,76.20
2019-05-23T11:04:04.222Z,76.00
2019-05-23T11:05:13.218Z,77.00
2019-05-23T11:06:16.471Z,77.40
2019-05-23T11:07:17.317Z,77.30
2019-05-23T11:08:20.282Z,68.30
2019-05-23T11:09:36.679Z,75.30
2019-05-23T11:10:27.666Z,73.60
2019-05-23T11:11:30.478Z,84.80
2019-05-23T11:12:32.938Z,82.80
2019-05-23T11:13:35.386Z,70.80
2019-05-23T11:14:38.120Z,78.90
2019-05-23T11:15:41.753Z,81.80
2019-05-23T11:16:44.198Z,84.20
2019-05-23T11:17:46.591Z,81.20
2019-05-23T11:18:49.459Z,71.50
2019-05-23T11:20:54.247Z,79.20
2019-05-23T11:21:56.875Z,80.40
2019-05-23T11:22:59.352Z,77.00
2019-05-23T11:24:04.157Z,76.60
2019-05-23T11:25:09.208Z,65.00
2019-05-23T11:26:12.303Z,70.30
2019-05-23T11:27:15.141Z,68.60
2019-05-23T11:28:18.032Z,70.10
2019-05-23T11:29:20.496Z,81.80
2019-05-23T11:30:35.887Z,78.50
2019-05-23T11:31:38.363Z,74.30
2019-05-23T11:32:42.764Z,74.00
2019-05-23T11:33:45.222Z,78.00
2019-05-23T11:34:47.622Z,80.50
2019-05-23T11:35:50.490Z,78.90
2019-05-23T11:36:52.907Z,74.60
2019-05-23T11:37:55.289Z,77.80
2019-05-23T11:38:58.028Z,70.40
2019-05-23T11:40:00.446Z,74.80
2019-05-23T11:41:03.439Z,77.90
2019-05-23T11:42:06.083Z,78.70
2019-05-23T11:43:08.701Z,76.50
2019-05-23T11:44:11.302Z,80.70
2019-05-23T11:45:14.338Z,70.60
2019-05-23T11:46:24.933Z,77.70
2019-05-23T11:47:31.371Z,75.00
2019-05-23T11:48:34.018Z,71.00
2019-05-23T11:49:36.865Z,80.80
2019-05-23T11:50:39.425Z,78.30
2019-05-23T11:51:42.446Z,78.70
2019-05-23T11:52:45.490Z,78.00
2019-05-23T11:54:06.017Z,78.80
2019-05-23T11:54:53.517Z,73.70
2019-05-23T11:55:56.267Z,81.00
2019-05-23T11:56:59.537Z,79.00
2019-05-23T11:58:02.418Z,70.40
2019-05-23T11:59:05.520Z,75.10
2019-05-23T12:00:10.598Z,75.00
2019-05-23T12:01:48.361Z,82.40
2019-05-23T12:02:50.790Z,83.80
2019-05-23T12:03:57.328Z,81.80
2019-05-23T12:05:01.351Z,81.60
2019-05-23T12:06:05.738Z,73.40
2019-05-23T12:07:13.477Z,77.10
2019-05-23T12:08:15.896Z,84.10
2019-05-23T12:09:18.848Z,80.20
2019-05-23T12:10:21.353Z,74.20
2019-05-23T12:11:24.497Z,74.20
2019-05-23T12:12:27.132Z,76.10
2019-05-23T12:13:30.251Z,78.40
2019-05-23T12:14:33.270Z,79.80
2019-05-23T12:15:37.822Z,79.30
2019-05-23T12:16:40.371Z,79.70
2019-05-23T12:17:43.005Z,78.00
2019-05-23T12:18:45.648Z,85.50
2019-05-23T12:19:48.386Z,90.60
2019-05-23T12:20:50.803Z,82.70
2019-05-23T12:21:53.811Z,85.10
2019-05-23T12:22:56.275Z,91.30
2019-05-23T12:23:58.752Z,89.40
2019-05-23T12:25:20.119Z,78.70
2019-05-23T12:26:05.482Z,83.70
2019-05-23T12:27:08.432Z,86.80
2019-05-23T12:28:12.660Z,84.40
2019-05-23T12:29:15.297Z,84.50
2019-05-23T12:30:19.435Z,84.00
2019-05-23T12:31:22.926Z,80.10
2019-05-23T12:32:25.453Z,80.60
2019-05-23T12:33:27.923Z,79.40
2019-05-23T12:34:30.665Z,86.20
2019-05-23T12:35:33.256Z,86.00
2019-05-23T12:36:36.286Z,88.60
2019-05-23T12:37:38.778Z,88.10
2019-05-23T12:38:41.390Z,83.70
2019-05-23T12:39:44.454Z,84.20
2019-05-23T12:40:46.873Z,82.20
2019-05-23T12:41:49.618Z,84.10
2019-05-23T12:42:52.333Z,84.50
2019-05-23T12:43:54.830Z,82.20
2019-05-23T12:44:57.422Z,85.50
2019-05-23T12:45:59.885Z,75.60
2019-05-23T12:47:04.190Z,82.00
2019-05-23T12:48:13.140Z,84.00
2019-05-23T12:49:24.364Z,88.60
2019-05-23T12:50:29.747Z,86.90
2019-05-23T12:51:34.127Z,91.20
2019-05-23T12:52:38.371Z,77.70
2019-05-23T12:53:40.893Z,85.70
2019-05-23T12:54:43.400Z,84.50
2019-05-23T12:55:45.896Z,86.30
2019-05-23T12:56:49.147Z,84.00
2019-05-23T12:57:54.737Z,86.60
2019-05-23T12:58:57.958Z,87.70
2019-05-23T13:00:00.478Z,89.00
2019-05-23T13:01:04.187Z,89.00
2019-05-23T13:02:11.045Z,89.60
2019-05-23T13:03:14.953Z,90.30
2019-05-23T13:04:17.832Z,87.10
2019-05-23T13:05:48.909Z,89.20
2019-05-23T13:07:06.375Z,85.80
2019-05-23T13:08:13.130Z,88.00
2019-05-23T13:09:15.733Z,85.20
2019-05-23T13:10:23.756Z,91.30
2019-05-23T13:11:24.080Z,92.10
2019-05-23T13:12:26.929Z,90.90
2019-05-23T13:13:31.214Z,90.40
2019-05-23T13:14:33.642Z,87.90
2019-05-23T13:15:36.364Z,90.70
2019-05-23T13:16:39.082Z,85.60
2019-05-23T13:17:42.419Z,87.90
2019-05-23T13:18:44.970Z,91.80
2019-05-23T13:19:47.808Z,88.00
2019-05-23T13:20:50.538Z,86.00
2019-05-23T13:21:53.055Z,84.20
2019-05-23T13:22:55.841Z,90.00
2019-05-23T13:23:58.656Z,86.50
2019-05-23T13:25:01.307Z,89.00
2019-05-23T13:26:05.986Z,83.30
2019-05-23T13:27:09.827Z,85.60
2019-05-23T13:28:12.406Z,88.90
2019-05-23T13:29:15.143Z,90.70
2019-05-23T13:30:19.295Z,90.30
2019-05-23T13:31:21.693Z,83.50
2019-05-23T13:32:25.228Z,84.50
2019-05-23T13:33:27.750Z,82.30
2019-05-23T13:34:30.551Z,84.50
2019-05-23T13:35:33.644Z,78.40
2019-05-23T13:36:36.153Z,79.70
2019-05-23T13:37:52.929Z,80.20
2019-05-23T13:38:44.037Z,82.90
2019-05-23T13:39:46.733Z,84.10
2019-05-23T13:40:49.356Z,87.10
2019-05-23T13:41:52.097Z,85.00
2019-05-23T13:43:06.654Z,86.70
2019-05-23T13:44:33.939Z,90.10
2019-05-23T13:45:26.951Z,84.50
2019-05-23T13:46:29.664Z,87.20
2019-05-23T13:47:32.085Z,84.70
2019-05-23T13:48:34.744Z,85.10
2019-05-23T13:49:37.191Z,82.00